Time;durP1;ratioP1;P1;durP2;ratioP2;P2;SDS_P1;SDS_P2;PMS_P1;PMS_P2;Temp;Humidity;BMP_temperature;BMP_pressure;BME280_temperature;BME280_humidity;BME280_pressure;Samples;Min_cycle;Max_cycle;Signal;HPM_P1;HPM_P2
2022/11/24 00:02:00;;;;;;;18.65;11.45;;;5.90;99.90;;;;;;5073531;28;20071;-77
2022/11/24 00:04:26;;;;;;;19.00;12.52;;;5.90;99.90;;;;;;5073746;28;20020;-76
2022/11/24 00:06:54;;;;;;;17.02;11.13;;;5.90;99.90;;;;;;5073850;28;20027;-77
2022/11/24 00:09:20;;;;;;;19.70;11.98;;;5.90;99.90;;;;;;5073987;28;20035;-76
2022/11/24 00:11:46;;;;;;;16.40;11.73;;;6.00;99.90;;;;;;5072611;28;20024;-75
2022/11/24 00:14:12;;;;;;;17.15;11.45;;;6.00;99.90;;;;;;5072994;28;20039;-76
2022/11/24 00:16:38;;;;;;;18.90;11.95;;;6.00;99.90;;;;;;5072835;28;20028;-77
2022/11/24 00:19:09;;;;;;;20.40;11.88;;;6.00;99.90;;;;;;5072876;28;20025;-75
2022/11/24 00:21:36;;;;;;;;;;;6.00;99.90;;;;;;5073165;28;20444;-77
2022/11/24 00:24:02;;;;;;;22.25;12.65;;;6.00;99.90;;;;;;5071787;28;20250;-77
2022/11/24 00:26:33;;;;;;;20.02;11.88;;;6.00;99.90;;;;;;5073214;28;20052;-77
2022/11/24 00:29:01;;;;;;;21.63;11.55;;;6.00;99.90;;;;;;5071643;28;20401;-77
2022/11/24 00:31:33;;;;;;;17.42;10.45;;;6.00;99.90;;;;;;5072619;28;20059;-77
2022/11/24 00:34:02;;;;;;;18.42;10.73;;;6.00;99.90;;;;;;5072986;28;20025;-76
2022/11/24 00:36:30;;;;;;;15.52;10.05;;;6.00;99.90;;;;;;5072887;28;20052;-76
2022/11/24 00:38:58;;;;;;;18.95;11.15;;;6.00;99.90;;;;;;5071577;28;20052;-77
2022/11/24 00:41:25;;;;;;;16.83;11.10;;;6.00;99.90;;;;;;5072876;28;20162;-77
2022/11/24 00:43:52;;;;;;;17.85;12.07;;;6.00;99.90;;;;;;5072543;28;20517;-75
2022/11/24 00:46:18;;;;;;;16.50;10.82;;;6.00;99.90;;;;;;5073089;28;20120;-78
2022/11/24 00:48:45;;;;;;;21.63;12.70;;;6.00;99.90;;;;;;5072963;28;20024;-76
2022/11/24 00:51:13;;;;;;;19.23;12.52;;;6.00;99.90;;;;;;5072440;28;20020;-76
2022/11/24 00:53:39;;;;;;;22.17;12.38;;;6.00;99.90;;;;;;5073012;28;20028;-75
2022/11/24 00:56:05;;;;;;;20.30;12.18;;;6.00;99.90;;;;;;5071277;28;20387;-75
2022/11/24 00:58:32;;;;;;;18.83;11.77;;;6.00;99.90;;;;;;5076206;28;20129;-76
2022/11/24 01:01:26;;;;;;;19.92;12.02;;;6.00;99.90;;;;;;5075768;28;20375;-75
2022/11/24 01:03:53;;;;;;;25.27;13.40;;;6.00;99.90;;;;;;5074104;28;20039;-76
2022/11/24 01:06:25;;;;;;;24.77;13.95;;;6.00;99.90;;;;;;5076542;28;20050;-77
2022/11/24 01:08:51;;;;;;;22.23;13.43;;;6.00;99.90;;;;;;5076748;28;20070;-76
2022/11/24 01:12:02;;;;;;;22.80;12.85;;;6.00;99.90;;;;;;5076403;28;20035;-76
2022/11/24 01:14:29;;;;;;;24.38;14.07;;;6.10;99.90;;;;;;5047915;28;20049;-77
2022/11/24 01:16:56;;;;;;;22.05;12.63;;;6.10;99.90;;;;;;5023144;28;20046;-76
2022/11/24 01:19:22;;;;;;;22.33;12.95;;;6.10;99.90;;;;;;5015810;28;20164;-76
2022/11/24 01:21:48;;;;;;;25.40;14.13;;;6.10;99.90;;;;;;5031533;28;20026;-77
2022/11/24 01:24:15;;;;;;;19.52;12.43;;;6.10;99.90;;;;;;5033144;28;20516;-78
2022/11/24 01:26:41;;;;;;;21.20;12.02;;;6.10;99.90;;;;;;5025291;28;20029;-76
2022/11/24 01:29:06;;;;;;;19.67;11.75;;;6.10;99.90;;;;;;5014452;28;20041;-75
2022/11/24 01:31:32;;;;;;;20.05;11.18;;;6.10;99.90;;;;;;5014442;28;20045;-75
2022/11/24 01:33:58;;;;;;;17.98;10.30;;;6.20;99.90;;;;;;5014466;28;20416;-77
2022/11/24 01:36:25;;;;;;;16.77;10.43;;;6.20;99.90;;;;;;4999024;28;20041;-77
2022/11/24 01:38:51;;;;;;;17.70;11.57;;;6.20;99.90;;;;;;5010814;28;20039;-76
2022/11/24 01:41:20;;;;;;;20.35;12.02;;;6.10;99.90;;;;;;5033548;28;20029;-76
2022/11/24 01:43:46;;;;;;;20.20;11.82;;;6.20;99.90;;;;;;5016579;28;20025;-77
2022/11/24 01:46:26;;;;;;;17.98;12.15;;;6.20;99.90;;;;;;5033053;28;20072;-76
2022/11/24 01:49:17;;;;;;;18.48;11.18;;;6.10;99.90;;;;;;5014072;28;20026;-75
2022/11/24 01:51:52;;;;;;;21.48;11.95;;;6.20;99.90;;;;;;5031696;28;20045;-76
2022/11/24 01:54:23;;;;;;;21.98;10.98;;;6.20;99.90;;;;;;5035830;28;20155;-76
2022/11/24 01:56:52;;;;;;;18.57;10.37;;;6.20;99.90;;;;;;5035941;28;20033;-76
2022/11/24 01:59:20;;;;;;;17.63;10.07;;;6.10;99.90;;;;;;5035322;28;20021;-75
2022/11/24 02:01:49;;;;;;;15.73;9.30;;;6.20;99.90;;;;;;5035642;28;20028;-78
2022/11/24 02:04:19;;;;;;;19.15;11.57;;;6.20;99.90;;;;;;5034134;28;20399;-76
2022/11/24 02:06:46;;;;;;;21.25;11.70;;;6.20;99.90;;;;;;5035475;28;20025;-77
2022/11/24 02:09:43;;;;;;;24.02;12.90;;;6.20;99.90;;;;;;5034965;28;20075;-76
2022/11/24 02:12:09;;;;;;;21.23;13.63;;;6.20;99.90;;;;;;5031047;28;20040;-75
2022/11/24 02:14:38;;;;;;;24.33;13.05;;;6.20;99.90;;;;;;5043406;28;20086;-76
2022/11/24 02:17:04;;;;;;;21.65;12.38;;;6.20;99.90;;;;;;5075986;28;20020;-76
2022/11/24 02:19:44;;;;;;;22.25;12.77;;;6.30;99.90;;;;;;5075498;28;20371;-76
2022/11/24 02:22:21;;;;;;;26.33;13.75;;;6.20;99.90;;;;;;5075430;28;20430;-77
2022/11/24 02:25:09;;;;;;;21.52;12.68;;;6.20;99.90;;;;;;5075408;28;20040;-76
2022/11/24 02:27:35;;;;;;;20.15;12.30;;;6.20;99.90;;;;;;5075505;28;20027;-75
2022/11/24 02:30:00;;;;;;;19.40;10.52;;;6.20;99.90;;;;;;5075084;28;20023;-75
2022/11/24 02:32:28;;;;;;;17.63;10.65;;;6.20;99.90;;;;;;5075560;28;20025;-76
2022/11/24 02:35:06;;;;;;;19.95;11.18;;;6.20;99.90;;;;;;5075323;28;20051;-76
2022/11/24 02:37:32;;;;;;;19.95;11.73;;;6.20;99.90;;;;;;5075472;28;20424;-75
2022/11/24 02:39:57;;;;;;;20.77;11.00;;;6.20;99.90;;;;;;5075441;28;20474;-77
2022/11/24 02:42:26;;;;;;;18.77;11.02;;;6.20;99.90;;;;;;5074973;28;20019;-77
2022/11/24 02:44:56;;;;;;;19.58;11.30;;;6.20;99.90;;;;;;5074535;28;20038;-76
2022/11/24 02:47:21;;;;;;;24.77;11.52;;;6.20;99.90;;;;;;5074619;28;20028;-76
2022/11/24 02:49:47;;;;;;;22.98;12.25;;;6.20;99.90;;;;;;5074770;28;20140;-75
2022/11/24 02:52:13;;;;;;;15.10;9.15;;;6.20;99.90;;;;;;5073067;28;20024;-76
2022/11/24 02:54:39;;;;;;;16.15;9.18;;;6.20;99.90;;;;;;5074242;28;20021;-77
2022/11/24 02:57:05;;;;;;;19.08;10.45;;;6.20;99.90;;;;;;5074381;28;20051;-77
2022/11/24 02:59:30;;;;;;;17.13;10.02;;;6.20;99.90;;;;;;5073353;28;20032;-75
2022/11/24 03:01:56;;;;;;;23.25;11.18;;;6.20;99.90;;;;;;5074302;28;20020;-76
2022/11/24 03:04:22;;;;;;;15.75;9.52;;;6.30;99.90;;;;;;5073900;28;20036;-76
2022/11/24 03:06:48;;;;;;;20.98;9.45;;;6.30;99.90;;;;;;5073815;28;20027;-76
2022/11/24 03:09:14;;;;;;;15.48;8.90;;;6.30;99.90;;;;;;5074445;28;20036;-76
2022/11/24 03:11:39;;;;;;;17.48;9.63;;;6.30;99.90;;;;;;5074504;28;20090;-75
2022/11/24 03:14:05;;;;;;;18.40;10.13;;;6.30;99.90;;;;;;5073301;28;20034;-76
2022/11/24 03:16:32;;;;;;;20.60;10.85;;;6.30;99.90;;;;;;5073100;28;20051;-76
2022/11/24 03:18:58;;;;;;;17.55;10.63;;;6.20;99.90;;;;;;5073697;28;20029;-78
2022/11/24 03:21:24;;;;;;;18.77;10.65;;;6.20;99.90;;;;;;5073553;28;20016;-75
2022/11/24 03:23:52;;;;;;;20.83;10.90;;;6.10;99.90;;;;;;5074033;28;20478;-76
2022/11/24 03:26:20;;;;;;;23.33;11.35;;;6.10;99.90;;;;;;5073081;28;20031;-77
2022/11/24 03:28:46;;;;;;;19.33;10.85;;;6.10;99.90;;;;;;5072647;28;20413;-76
2022/11/24 03:31:12;;;;;;;15.15;9.57;;;6.00;99.90;;;;;;5073812;28;20028;-77
2022/11/24 03:33:38;;;;;;;22.17;11.68;;;6.00;99.90;;;;;;5073556;28;20025;-77
2022/11/24 03:36:05;;;;;;;18.60;10.82;;;6.00;99.90;;;;;;5073907;28;20056;-77
2022/11/24 03:38:32;;;;;;;19.33;11.23;;;5.90;99.90;;;;;;5073232;28;20503;-75
2022/11/24 03:40:57;;;;;;;19.83;12.02;;;5.90;99.90;;;;;;5073445;28;20020;-75
2022/11/24 03:43:23;;;;;;;16.52;10.48;;;5.90;99.90;;;;;;5073781;28;20018;-75
2022/11/24 03:45:49;;;;;;;20.20;12.07;;;5.80;99.90;;;;;;5073656;28;20024;-76
2022/11/24 03:48:17;;;;;;;17.67;11.18;;;5.80;99.90;;;;;;5072988;28;20024;-76
2022/11/24 03:50:50;;;;;;;19.35;11.15;;;5.80;99.90;;;;;;5073874;28;20440;-77
2022/11/24 03:53:16;;;;;;;17.80;10.48;;;5.80;99.90;;;;;;5073210;28;20017;-75
2022/11/24 03:55:42;;;;;;;20.48;12.30;;;5.80;99.90;;;;;;5073265;28;20366;-76
2022/11/24 03:58:08;;;;;;;19.60;12.00;;;5.80;99.90;;;;;;5073815;28;20044;-75
2022/11/24 04:00:34;;;;;;;22.02;12.23;;;5.80;99.90;;;;;;5074019;28;20027;-77
2022/11/24 04:02:59;;;;;;;30.33;15.48;;;5.80;99.90;;;;;;5073702;28;20376;-76
2022/11/24 04:05:25;;;;;;;28.65;14.40;;;5.80;99.90;;;;;;5073893;28;20020;-75
2022/11/24 04:07:56;;;;;;;28.35;14.68;;;5.70;99.90;;;;;;5073895;28;20034;-76
2022/11/24 04:10:23;;;;;;;30.35;16.13;;;5.70;99.90;;;;;;5074127;28;20036;-75
2022/11/24 04:12:48;;;;;;;30.70;16.17;;;5.70;99.90;;;;;;5073085;28;20024;-76
2022/11/24 04:15:16;;;;;;;27.17;16.17;;;5.60;99.90;;;;;;5072932;28;20114;-75
2022/11/24 04:17:43;;;;;;;32.80;17.25;;;5.60;99.90;;;;;;5072770;28;20025;-77
2022/11/24 04:20:09;;;;;;;30.02;17.33;;;5.50;99.90;;;;;;5072639;28;20032;-75
2022/11/24 04:22:35;;;;;;;33.50;17.08;;;5.50;99.90;;;;;;5071991;28;20024;-76
2022/11/24 04:25:02;;;;;;;28.88;15.73;;;5.50;99.90;;;;;;5072989;28;20033;-76
2022/11/24 04:27:28;;;;;;;34.42;16.23;;;5.50;99.90;;;;;;5072646;28;20024;-75
2022/11/24 04:29:54;;;;;;;31.08;17.23;;;5.50;99.90;;;;;;5072992;28;20020;-76
2022/11/24 04:32:19;;;;;;;31.08;16.67;;;5.50;99.90;;;;;;5075802;28;20074;-76
2022/11/24 04:34:45;;;;;;;31.40;17.73;;;5.50;99.90;;;;;;5061519;28;20024;-77
2022/11/24 04:37:11;;;;;;;38.40;19.92;;;5.50;99.90;;;;;;5077381;28;20021;-75
2022/11/24 04:39:37;;;;;;;46.05;18.88;;;5.60;99.90;;;;;;5077025;28;20074;-76
2022/11/24 04:42:03;;;;;;;43.65;19.13;;;5.60;99.90;;;;;;5076845;28;20024;-77
2022/11/24 04:44:28;;;;;;;37.70;19.67;;;5.60;99.90;;;;;;5075607;28;20024;-77
2022/11/24 04:46:54;;;;;;;37.13;19.45;;;5.60;99.90;;;;;;5077371;28;20039;-76
2022/11/24 04:49:20;;;;;;;41.67;20.60;;;5.60;99.90;;;;;;5075963;28;20371;-75
2022/11/24 04:51:46;;;;;;;41.55;21.25;;;5.60;99.90;;;;;;5076612;28;20095;-77
2022/11/24 04:54:13;;;;;;;42.75;22.88;;;5.60;99.90;;;;;;5076492;28;20043;-76
2022/11/24 04:56:42;;;;;;;49.42;24.25;;;5.60;99.90;;;;;;5076691;28;20423;-76
2022/11/24 04:59:15;;;;;;;54.67;28.52;;;5.60;99.90;;;;;;5076270;28;20052;-76
2022/11/24 05:01:42;;;;;;;47.47;24.30;;;5.60;99.90;;;;;;5075791;28;20099;-77
2022/11/24 05:04:10;;;;;;;55.72;27.67;;;5.60;99.90;;;;;;5075526;28;20371;-75
2022/11/24 05:06:36;;;;;;;48.40;23.80;;;5.70;99.90;;;;;;5076272;28;20020;-77
2022/11/24 05:09:02;;;;;;;40.00;21.85;;;5.80;99.90;;;;;;5076462;28;20032;-77
2022/11/24 05:11:28;;;;;;;36.33;20.17;;;5.80;99.90;;;;;;5076078;28;20021;-75
2022/11/24 05:13:54;;;;;;;44.40;23.25;;;5.90;99.90;;;;;;5076951;28;20069;-75
2022/11/24 05:16:19;;;;;;;35.53;19.92;;;5.90;99.90;;;;;;5077017;28;20044;-76
2022/11/24 05:18:45;;;;;;;37.22;19.35;;;5.90;99.90;;;;;;5076403;28;20024;-77
2022/11/24 05:21:11;;;;;;;32.95;16.70;;;5.90;99.90;;;;;;5076075;28;20462;-75
2022/11/24 05:23:37;;;;;;;32.53;16.75;;;5.90;99.90;;;;;;5076108;28;20359;-76
2022/11/24 05:26:04;;;;;;;33.70;19.23;;;5.90;99.90;;;;;;5075004;28;20108;-76
2022/11/24 05:28:30;;;;;;;32.90;18.55;;;5.90;99.90;;;;;;5075794;28;20375;-76
2022/11/24 05:31:03;;;;;;;40.90;21.23;;;5.90;99.90;;;;;;5075767;28;20099;-76
2022/11/24 05:33:32;;;;;;;36.92;21.77;;;5.90;99.90;;;;;;5070054;28;20070;-78
2022/11/24 05:36:02;;;;;;;39.85;21.75;;;5.90;99.90;;;;;;5075829;28;20451;-75
2022/11/24 05:38:29;;;;;;;37.15;21.33;;;5.90;99.90;;;;;;5076118;28;20020;-76
2022/11/24 05:40:59;;;;;;;38.90;22.10;;;5.80;99.90;;;;;;5075563;28;20047;-75
2022/11/24 05:43:25;;;;;;;44.50;23.60;;;5.90;99.90;;;;;;5074584;28;20028;-76
2022/11/24 05:45:51;;;;;;;40.58;21.98;;;5.90;99.90;;;;;;5075440;28;20028;-76
2022/11/24 05:48:16;;;;;;;46.40;24.48;;;5.80;99.90;;;;;;5075865;28;20016;-76
2022/11/24 05:50:42;;;;;;;45.80;25.67;;;5.90;99.90;;;;;;5075389;28;20028;-75
2022/11/24 05:53:12;;;;;;;40.08;22.23;;;5.80;99.90;;;;;;5075469;28;20043;-77
2022/11/24 05:55:39;;;;;;;44.03;22.95;;;5.80;99.90;;;;;;5075536;28;20470;-76
2022/11/24 05:58:07;;;;;;;51.50;23.50;;;5.90;99.90;;;;;;5075327;28;20021;-76
2022/11/24 06:00:34;;;;;;;41.30;21.50;;;5.80;99.90;;;;;;5075686;28;20027;-77
2022/11/24 06:03:01;;;;;;;39.03;19.83;;;5.80;99.90;;;;;;5075642;28;20419;-76
2022/11/24 06:05:28;;;;;;;39.88;20.17;;;5.90;99.90;;;;;;5075665;28;20032;-75
2022/11/24 06:07:54;;;;;;;38.92;18.70;;;5.90;99.90;;;;;;5075183;28;20024;-76
2022/11/24 06:10:22;;;;;;;40.00;19.42;;;6.00;99.90;;;;;;5076077;28;20025;-75
2022/11/24 06:12:48;;;;;;;47.22;22.52;;;6.00;99.90;;;;;;5075750;28;20056;-77
2022/11/24 06:15:14;;;;;;;42.30;19.98;;;6.00;99.90;;;;;;5075486;28;20448;-75
2022/11/24 06:17:40;;;;;;;43.65;22.52;;;6.10;99.90;;;;;;5075672;28;20020;-76
2022/11/24 06:20:07;;;;;;;52.30;28.30;;;6.10;99.90;;;;;;5075794;28;20020;-76
2022/11/24 06:22:33;;;;;;;34.17;17.38;;;6.10;99.90;;;;;;5075633;28;20031;-75
2022/11/24 06:24:59;;;;;;;31.73;17.60;;;6.20;99.90;;;;;;5075737;28;20025;-76
2022/11/24 06:27:24;;;;;;;32.60;16.30;;;6.20;99.90;;;;;;5076194;28;20032;-76
2022/11/24 06:29:50;;;;;;;34.95;17.15;;;6.20;99.90;;;;;;5075163;28;20024;-76
2022/11/24 06:32:16;;;;;;;43.17;23.98;;;6.30;99.90;;;;;;5075210;28;20451;-76
2022/11/24 06:34:42;;;;;;;100.75;61.03;;;6.30;99.90;;;;;;5075525;28;20024;-76
2022/11/24 06:37:08;;;;;;;65.57;34.75;;;6.30;99.90;;;;;;5075285;28;20029;-75
2022/11/24 06:39:34;;;;;;;33.70;18.10;;;6.30;99.90;;;;;;5075418;28;20052;-76
2022/11/24 06:42:00;;;;;;;24.73;12.90;;;6.40;99.90;;;;;;5075308;28;20023;-75
2022/11/24 06:44:25;;;;;;;20.85;11.02;;;6.40;99.90;;;;;;5075132;28;20021;-76
2022/11/24 06:46:51;;;;;;;24.20;12.68;;;6.40;99.90;;;;;;5075023;28;20030;-77
2022/11/24 06:49:17;;;;;;;26.10;12.20;;;6.50;99.90;;;;;;5075219;28;20471;-76
2022/11/24 06:51:43;;;;;;;24.95;11.95;;;6.50;99.90;;;;;;5075399;28;20025;-77
2022/11/24 06:54:12;;;;;;;25.83;12.25;;;6.60;99.90;;;;;;5074649;28;20016;-75
2022/11/24 06:56:38;;;;;;;19.50;9.35;;;6.60;99.90;;;;;;5074452;28;20052;-76
2022/11/24 06:59:04;;;;;;;20.67;9.82;;;6.60;99.90;;;;;;5074865;28;20032;-75
2022/11/24 07:01:31;;;;;;;22.42;10.23;;;6.60;99.90;;;;;;5074779;28;20025;-76
2022/11/24 07:03:57;;;;;;;17.08;9.30;;;6.70;99.90;;;;;;5074952;28;20016;-76
2022/11/24 07:06:25;;;;;;;16.90;9.05;;;6.70;99.90;;;;;;5074641;28;20375;-76
2022/11/24 07:08:51;;;;;;;18.65;9.45;;;6.80;99.90;;;;;;5074486;28;20123;-76
2022/11/24 07:11:20;;;;;;;17.17;10.23;;;6.80;99.90;;;;;;5074340;28;20017;-77
2022/11/24 07:13:46;;;;;;;17.08;9.63;;;6.80;99.90;;;;;;5074583;28;20021;-75
2022/11/24 07:16:19;;;;;;;19.63;10.93;;;6.90;99.90;;;;;;5074246;28;20051;-76
2022/11/24 07:18:46;;;;;;;24.60;11.60;;;6.90;99.90;;;;;;5074651;28;20017;-76
2022/11/24 07:21:13;;;;;;;20.70;11.43;;;6.90;99.90;;;;;;5073443;28;20024;-76
2022/11/24 07:23:39;;;;;;;21.98;10.50;;;7.00;99.90;;;;;;5074858;28;20024;-76
2022/11/24 07:26:06;;;;;;;22.17;10.45;;;7.00;99.90;;;;;;5074601;28;20037;-77
2022/11/24 07:28:32;;;;;;;22.90;11.00;;;7.00;99.90;;;;;;5074124;28;20063;-76
2022/11/24 07:30:58;;;;;;;26.52;11.63;;;7.00;99.90;;;;;;5074238;28;20060;-76
2022/11/24 07:33:25;;;;;;;31.17;14.25;;;7.10;99.90;;;;;;5074720;28;20104;-75
2022/11/24 07:35:58;;;;;;;25.92;13.55;;;7.10;99.90;;;;;;5072908;28;20482;-76
2022/11/24 07:38:23;;;;;;;29.15;14.82;;;7.10;99.90;;;;;;5074402;28;20447;-76
2022/11/24 07:40:49;;;;;;;29.00;14.05;;;7.10;99.90;;;;;;5074092;28;20077;-76
2022/11/24 07:43:15;;;;;;;36.38;16.98;;;7.10;99.90;;;;;;5073991;28;20021;-76
2022/11/24 07:45:41;;;;;;;38.00;18.15;;;7.10;99.90;;;;;;5074092;28;20059;-76
2022/11/24 07:48:06;;;;;;;30.73;16.45;;;7.20;99.90;;;;;;5073929;28;20021;-76
2022/11/24 07:50:32;;;;;;;31.30;15.52;;;7.10;99.90;;;;;;5072782;28;20367;-76
2022/11/24 07:53:02;;;;;;;33.65;18.35;;;7.10;99.90;;;;;;5073932;28;20024;-75
2022/11/24 07:55:29;;;;;;;41.40;17.60;;;7.10;99.90;;;;;;5073805;28;20090;-76
2022/11/24 07:57:58;;;;;;;46.05;22.33;;;7.20;99.90;;;;;;5074258;28;20105;-76
2022/11/24 08:00:24;;;;;;;43.78;21.58;;;7.20;99.90;;;;;;5074028;28;20055;-77
2022/11/24 08:02:49;;;;;;;39.55;19.50;;;7.20;99.90;;;;;;5074051;28;20102;-77
2022/11/24 08:05:15;;;;;;;42.13;20.67;;;7.20;99.90;;;;;;5073700;28;20024;-76
2022/11/24 08:07:41;;;;;;;39.53;20.20;;;7.20;99.90;;;;;;5073548;28;20028;-76
2022/11/24 08:10:07;;;;;;;37.72;18.17;;;7.20;99.90;;;;;;5074144;28;20024;-77
2022/11/24 08:12:33;;;;;;;42.83;20.00;;;7.30;99.90;;;;;;5072965;28;20537;-76
2022/11/24 08:14:59;;;;;;;36.13;19.00;;;7.20;99.90;;;;;;5073441;28;20541;-77
2022/11/24 08:17:27;;;;;;;39.25;18.95;;;7.30;99.90;;;;;;5073472;28;20047;-76
2022/11/24 08:19:53;;;;;;;30.60;16.38;;;7.30;99.90;;;;;;5073845;28;20025;-75
2022/11/24 08:22:19;;;;;;;35.20;18.00;;;7.30;99.90;;;;;;5073836;28;20031;-76
2022/11/24 08:24:47;;;;;;;41.35;20.13;;;7.40;99.90;;;;;;5073447;28;20373;-76
2022/11/24 08:27:14;;;;;;;33.60;18.40;;;7.40;99.90;;;;;;5073219;28;20459;-75
2022/11/24 08:29:41;;;;;;;42.13;23.05;;;7.40;99.90;;;;;;5073818;28;20012;-76
2022/11/24 08:32:07;;;;;;;21.55;13.75;;;7.40;99.90;;;;;;5073596;28;20351;-78
2022/11/24 08:34:33;;;;;;;22.35;10.70;;;7.40;99.90;;;;;;5073525;28;20021;-77
2022/11/24 08:36:59;;;;;;;21.08;11.48;;;7.40;99.90;;;;;;5073567;28;20107;-77
2022/11/24 08:39:25;;;;;;;41.38;18.67;;;7.50;99.90;;;;;;5073326;28;20089;-78
2022/11/24 08:41:51;;;;;;;48.58;22.45;;;7.40;99.90;;;;;;5072153;28;20440;-77
2022/11/24 08:44:17;;;;;;;47.53;22.42;;;7.50;99.90;;;;;;5073362;28;20531;-76
2022/11/24 08:46:43;;;;;;;43.97;21.95;;;7.50;99.90;;;;;;5073554;28;20370;-77
2022/11/24 08:49:09;;;;;;;54.17;24.65;;;7.60;99.90;;;;;;5073654;28;20020;-76
2022/11/24 08:51:36;;;;;;;36.95;17.77;;;7.60;99.90;;;;;;5073337;28;20052;-77
2022/11/24 08:54:02;;;;;;;30.33;14.45;;;7.60;99.90;;;;;;5073187;28;20025;-77
2022/11/24 08:56:30;;;;;;;23.83;13.75;;;7.70;99.90;;;;;;5072255;28;20122;-76
2022/11/24 08:58:56;;;;;;;24.02;12.85;;;7.70;99.90;;;;;;5073125;28;20025;-75
2022/11/24 09:01:22;;;;;;;22.73;12.27;;;7.80;99.90;;;;;;5073212;28;20032;-76
2022/11/24 09:03:49;;;;;;;20.50;11.95;;;7.80;99.90;;;;;;5073291;28;20092;-77
2022/11/24 09:06:17;;;;;;;20.30;10.77;;;7.90;99.90;;;;;;5073055;28;20074;-76
2022/11/24 09:08:42;;;;;;;33.15;15.25;;;7.90;99.90;;;;;;5073513;28;20435;-77
2022/11/24 09:11:11;;;;;;;27.65;14.23;;;8.00;99.90;;;;;;5072849;28;20016;-76
2022/11/24 09:13:37;;;;;;;25.45;13.10;;;8.10;99.90;;;;;;5073230;28;20044;-77
2022/11/24 09:16:08;;;;;;;27.83;11.98;;;8.10;99.90;;;;;;5072617;28;20091;-77
2022/11/24 09:18:35;;;;;;;34.00;13.98;;;8.10;99.90;;;;;;5074631;28;20374;-79
2022/11/24 09:21:08;;;;;;;40.78;15.85;;;8.20;99.90;;;;;;5076631;28;20101;-77
2022/11/24 09:23:34;;;;;;;21.15;11.20;;;8.20;99.90;;;;;;5076405;28;20012;-77
2022/11/24 09:26:25;;;;;;;22.20;12.13;;;8.20;99.90;;;;;;5076812;28;20358;-77
2022/11/24 09:28:55;;;;;;;22.58;11.68;;;8.30;99.90;;;;;;5073727;28;20115;-77
2022/11/24 09:31:23;;;;;;;31.60;15.27;;;8.30;99.90;;;;;;5076655;28;20443;-77
2022/11/24 09:33:51;;;;;;;19.85;11.02;;;8.30;99.90;;;;;;5076368;28;20017;-76
2022/11/24 09:36:17;;;;;;;18.90;10.68;;;8.30;99.90;;;;;;5076691;28;20028;-76
2022/11/24 09:38:43;;;;;;;24.60;12.55;;;8.30;99.90;;;;;;5076469;28;20453;-76
2022/11/24 09:41:24;;;;;;;28.77;13.63;;;8.40;99.90;;;;;;5076496;28;20167;-77
2022/11/24 09:44:24;;;;;;;32.45;15.48;;;8.40;99.90;;;;;;5076112;28;20063;-77
2022/11/24 09:47:09;;;;;;;33.47;16.95;;;8.50;99.90;;;;;;5073362;28;20032;-77
2022/11/24 09:49:47;;;;;;;37.78;18.50;;;8.50;99.90;;;;;;5076397;28;20016;-76
2022/11/24 09:52:19;;;;;;;29.77;13.93;;;8.50;99.90;;;;;;5076262;28;20380;-76
2022/11/24 09:54:59;;;;;;;23.92;12.52;;;8.50;99.90;;;;;;5076489;28;20093;-76
2022/11/24 09:57:28;;;;;;;26.80;13.07;;;8.60;99.90;;;;;;5076518;28;20024;-76
2022/11/24 09:59:58;;;;;;;27.15;17.02;;;8.60;99.90;;;;;;5076056;28;20443;-78
2022/11/24 10:02:24;;;;;;;23.38;10.80;;;8.60;99.90;;;;;;5076484;28;20016;-78
2022/11/24 10:04:51;;;;;;;19.23;10.93;;;8.60;99.90;;;;;;5076261;28;20028;-77
2022/11/24 10:07:21;;;;;;;22.17;11.38;;;8.60;99.90;;;;;;5076192;28;20020;-74
2022/11/24 10:10:09;;;;;;;32.95;15.85;;;8.60;99.90;;;;;;5076329;28;20585;-78
2022/11/24 10:12:53;;;;;;;30.27;15.35;;;8.70;99.90;;;;;;5075802;28;20020;-76
2022/11/24 10:15:30;;;;;;;32.00;15.68;;;8.80;99.90;;;;;;5075937;28;20040;-77
2022/11/24 10:18:14;;;;;;;28.38;14.60;;;8.80;99.90;;;;;;5076226;28;20051;-76
2022/11/24 10:21:20;;;;;;;28.30;14.77;;;9.00;99.90;;;;;;5074434;28;20435;-77
2022/11/24 10:24:05;;;;;;;36.10;17.92;;;9.00;99.90;;;;;;5057901;28;20107;-78
2022/11/24 10:26:39;;;;;;;23.60;11.40;;;9.10;99.90;;;;;;5075773;28;20103;-77
2022/11/24 10:29:12;;;;;;;31.20;15.68;;;9.10;99.90;;;;;;5075412;28;20520;-77
2022/11/24 10:31:41;;;;;;;28.25;13.90;;;9.20;99.90;;;;;;5075592;28;20070;-77
2022/11/24 10:34:16;;;;;;;21.50;11.07;;;9.30;99.90;;;;;;5075446;28;20016;-76
2022/11/24 10:36:56;;;;;;;91.95;38.17;;;9.30;99.90;;;;;;5075507;28;20024;-76
2022/11/24 10:39:36;;;;;;;32.90;18.27;;;9.30;99.90;;;;;;5075302;28;20016;-76
2022/11/24 10:42:11;;;;;;;36.38;19.58;;;9.30;99.90;;;;;;5075267;28;20024;-76
2022/11/24 10:44:39;;;;;;;31.02;15.85;;;9.40;99.90;;;;;;5075371;28;20016;-76
2022/11/24 10:47:18;;;;;;;27.33;13.80;;;9.60;99.90;;;;;;5073882;28;20446;-77
2022/11/24 10:50:07;;;;;;;41.63;19.27;;;10.50;99.90;;;;;;5075626;28;20039;-76
2022/11/24 10:52:40;;;;;;;29.00;14.40;;;11.00;99.90;;;;;;5075263;28;20027;-76
2022/11/24 10:55:06;;;;;;;33.58;17.95;;;10.90;99.90;;;;;;5075214;28;20029;-77
2022/11/24 10:57:37;;;;;;;38.50;17.95;;;10.80;99.90;;;;;;5074942;28;20099;-76
2022/11/24 11:00:18;;;;;;;42.47;19.47;;;10.70;99.90;;;;;;5075130;28;20024;-78
2022/11/24 11:02:46;;;;;;;39.95;18.13;;;10.60;99.90;;;;;;5074504;28;20443;-77
2022/11/24 11:05:51;;;;;;;30.00;16.58;;;10.80;99.90;;;;;;5074891;28;20126;-77
2022/11/24 11:08:22;;;;;;;24.15;13.43;;;11.30;99.90;;;;;;5052330;28;20047;-77
2022/11/24 11:10:51;;;;;;;28.27;16.02;;;12.20;98.00;;;;;;5052578;28;20522;-76
2022/11/24 11:13:28;;;;;;;27.77;16.08;;;13.20;94.40;;;;;;5035648;28;20023;-76
2022/11/24 11:15:55;;;;;;;26.42;14.15;;;13.70;91.10;;;;;;5051980;28;20075;-78
2022/11/24 11:18:24;;;;;;;16.85;10.00;;;13.60;87.30;;;;;;5052441;28;20021;-77
2022/11/24 11:21:00;;;;;;;19.73;10.25;;;13.00;86.10;;;;;;5052211;28;20028;-77
2022/11/24 11:23:36;;;;;;;14.45;6.70;;;12.90;85.20;;;;;;5052402;28;20037;-77
2022/11/24 11:26:22;;;;;;;39.17;19.55;;;12.70;84.00;;;;;;5052385;28;20025;-76
2022/11/24 11:29:18;;;;;;;20.77;10.95;;;12.00;84.40;;;;;;5052162;28;20063;-77
2022/11/24 11:31:59;;;;;;;18.95;8.55;;;11.60;88.10;;;;;;5052316;28;20542;-77
2022/11/24 11:34:26;;;;;;;21.98;11.13;;;12.40;86.40;;;;;;5052265;28;20029;-77
2022/11/24 11:36:54;;;;;;;19.27;9.85;;;12.90;84.60;;;;;;5051729;28;20573;-77
2022/11/24 11:39:28;;;;;;;11.27;5.97;;;12.70;84.00;;;;;;5052042;28;20035;-76
2022/11/24 11:42:09;;;;;;;17.88;8.98;;;13.00;84.80;;;;;;5059936;28;20467;-78
2022/11/24 11:44:56;;;;;;;10.15;5.53;;;13.20;83.10;;;;;;5072867;28;20016;-78
2022/11/24 11:47:47;;;;;;;11.93;6.97;;;12.60;81.10;;;;;;5074150;28;20385;-76
2022/11/24 11:50:16;;;;;;;15.60;7.43;;;12.00;83.40;;;;;;5073361;28;20086;-76
2022/11/24 11:52:50;;;;;;;45.42;19.20;;;11.60;85.50;;;;;;5073889;28;20104;-76
2022/11/24 11:55:22;;;;;;;23.15;12.50;;;11.30;88.80;;;;;;5073751;28;20039;-77
2022/11/24 11:57:52;;;;;;;;;;;11.10;90.40;;;;;;5074140;28;20095;-77
2022/11/24 12:00:20;;;;;;;13.27;7.70;;;11.00;91.60;;;;;;5074072;28;19901;-76
2022/11/24 12:03:05;;;;;;;28.98;11.48;;;10.70;91.90;;;;;;5072674;28;20070;-76
2022/11/24 12:06:01;;;;;;;21.85;10.85;;;10.60;93.00;;;;;;5073763;28;20078;-78
2022/11/24 12:08:50;;;;;;;18.75;9.98;;;10.50;94.10;;;;;;5073993;28;20070;-77
2022/11/24 12:11:37;;;;;;;20.20;11.00;;;10.30;95.10;;;;;;5073894;28;20025;-76
2022/11/24 12:14:21;;;;;;;19.90;11.70;;;10.20;96.00;;;;;;5073963;28;20460;-78
2022/11/24 12:17:16;;;;;;;26.77;13.88;;;10.10;98.30;;;;;;5073700;28;20062;-77
2022/11/24 12:19:51;;;;;;;22.40;11.77;;;10.20;99.90;;;;;;5072401;28;20031;-77
2022/11/24 12:22:30;;;;;;;18.42;10.10;;;10.20;99.90;;;;;;5073508;28;20075;-76
2022/11/24 12:25:16;;;;;;;25.23;9.95;;;10.40;99.90;;;;;;5073633;28;20056;-79
2022/11/24 12:28:00;;;;;;;16.48;8.35;;;10.40;99.90;;;;;;5072662;28;20404;-77
2022/11/24 12:30:51;;;;;;;13.98;7.72;;;10.50;99.90;;;;;;5073748;28;20103;-76
2022/11/24 12:33:35;;;;;;;14.95;7.82;;;10.50;99.30;;;;;;5073761;28;20020;-77
2022/11/24 12:36:51;;;;;;;67.38;31.65;;;10.60;99.90;;;;;;5073545;28;20057;-76
2022/11/24 12:39:33;;;;;;;20.17;9.98;;;10.70;99.90;;;;;;5031041;28;20142;-77
2022/11/24 12:42:16;;;;;;;31.42;13.88;;;10.80;99.10;;;;;;5014914;28;20110;-76
2022/11/24 12:44:59;;;;;;;45.22;20.58;;;10.90;99.90;;;;;;5031298;28;20353;-77
2022/11/24 12:47:38;;;;;;;33.13;14.45;;;11.00;99.90;;;;;;5031463;28;20105;-77
2022/11/24 12:50:16;;;;;;;18.50;7.93;;;11.10;98.50;;;;;;5031397;28;20063;-78
2022/11/24 12:52:52;;;;;;;21.80;10.23;;;10.90;97.40;;;;;;5033190;28;20091;-77